Aeroporto :
LOGIN :

Iscrizione | Disclaimer

   EN    FR    IT 

 










Sommario :    VFR   VFR Marginale   IFR   IFR Intensivo   IFR Molto Intensivo
Visibilità : 
Base nubi : 
>= 8 km
>= 3000ft
5 / 8 km
1000 / 3000 ft
1500m / 5 km
500 / 1000 ft
800 / 1500m
200 / 500 ft
< 800m
< 200 ft
Simboli :   Temporali  Nebbia  Neve Forte  Precipitazioni Forti  Vento > 20 kt
SIGMETs :   Varie  Temporali  Ghiacco  Turbolenza  Onda orograficha  Ceneri Vulcaniche






- Altitudine del aeroporto : 1046 ft
- Codice IATA : NUE


EDDN - Nuremberg

ULTIMO METAR :
  • 231820Z AUTO 02005KT CAVOK 19/11 Q1015 TEMPO 24010KT SHRA SCT040CB

METARs OBSOLETI :
  • 231750Z AUTO 01005KT CAVOK 20/10 Q1014 TEMPO SHRA SCT040CB
  • 231720Z AUTO 01005KT CAVOK 20/10 Q1014 NOSIG
  • 231650Z AUTO 35008KT 320V020 CAVOK 21/10 Q1014 NOSIG
  • 231620Z AUTO 35006KT 310V010 CAVOK 21/10 Q1014 NOSIG
  • 231550Z AUTO 04005KT 010V090 CAVOK 21/09 Q1014 NOSIG
  • 231520Z AUTO 31006KT 250V350 CAVOK 21/10 Q1014 NOSIG
  • 231450Z AUTO 34006KT 270V040 CAVOK 22/10 Q1014 NOSIG
  • 231420Z AUTO 28006KT 160V330 CAVOK 22/09 Q1014 NOSIG
  • 231350Z AUTO VRB04KT CAVOK 22/09 Q1014 NOSIG

TAF TAF EDDN
Valido dal 23 a 18 ore il 24 a 18 ore UTC


231700Z 2318/2418 VRB03KT CAVOK
PROB40
TEMPO 2318/2322 SHRA SCT040CB
TEMPO 2322/2402 26020G35KT 3000 TSRA SCT012 BKN020CB
TEMPO 2402/2410 4000 -RADZ BKN012
PROB30
TEMPO 2404/2408 2000 RADZ BKN006
BECMG 2410/2412 26005KT
PROB30
TEMPO 2412/2417 TSRA BKN015 SCT020CB



MetMap, La meteo Aeronautica in un colpo d'occhio ! - Copyright ORBIFLY Dicembre 2007 - Disclaimer

ORBIFLY MET'MAP TEAM :

Programmazione e sviluppo : Alexandra Zaïnal
Concezione : Baudouin d'Aumeries
Supporto tecnico e logistico : Manuel Goepfert
Aiuto : Marc-Olivier Méhu
Aiuto per la traduzione : Arnaldo La Scala




FONTI E CREDITI :

   NOAA